createdAt,value
2023-06-02T00:00:02.570Z,2.85
2023-06-02T00:02:43.094Z,4.03
2023-06-02T00:05:34.120Z,2.78
2023-06-02T00:08:11.449Z,3.58
2023-06-02T00:10:39.881Z,3.90
2023-06-02T00:13:09.369Z,3.20
2023-06-02T00:15:42.812Z,2.80
2023-06-02T00:18:15.129Z,3.45
2023-06-02T00:20:52.006Z,3.22
2023-06-02T00:23:20.974Z,3.72
2023-06-02T00:25:47.547Z,2.50
2023-06-02T00:28:14.077Z,3.55
2023-06-02T00:30:43.619Z,2.47
2023-06-02T00:33:37.254Z,2.47
2023-06-02T00:36:05.619Z,3.35
2023-06-02T00:38:36.005Z,3.00
2023-06-02T00:41:02.754Z,3.30
2023-06-02T00:43:29.700Z,3.42
2023-06-02T00:45:58.549Z,3.00
2023-06-02T00:48:25.948Z,3.13
2023-06-02T00:50:52.878Z,3.55
2023-06-02T00:53:21.596Z,3.05
2023-06-02T00:55:48.245Z,3.40
2023-06-02T00:58:24.806Z,2.55
2023-06-02T01:00:52.331Z,2.85
2023-06-02T01:03:26.508Z,2.92
2023-06-02T01:05:54.485Z,3.53
2023-06-02T01:08:34.813Z,3.20
2023-06-02T01:11:14.804Z,4.22
2023-06-02T01:13:41.434Z,3.22
2023-06-02T01:16:08.073Z,3.70
2023-06-02T01:18:41.237Z,2.97
2023-06-02T01:21:08.221Z,3.83
2023-06-02T01:23:38.080Z,2.63
2023-06-02T01:26:11.287Z,3.00
2023-06-02T01:28:38.597Z,3.00
2023-06-02T01:31:20.637Z,2.97
2023-06-02T01:34:00.598Z,2.95
2023-06-02T01:36:32.489Z,2.75
2023-06-02T01:39:14.691Z,3.20
2023-06-02T01:41:47.000Z,3.53
2023-06-02T01:44:16.354Z,3.42
2023-06-02T01:46:43.064Z,4.63
2023-06-02T01:49:19.209Z,3.35
2023-06-02T01:51:49.137Z,3.78
2023-06-02T01:54:19.189Z,3.53
2023-06-02T01:56:52.903Z,3.10
2023-06-02T01:59:37.475Z,3.15
2023-06-02T02:02:04.514Z,2.92
2023-06-02T02:04:31.470Z,2.80
2023-06-02T02:06:58.148Z,3.65
2023-06-02T02:09:27.091Z,3.15
2023-06-02T02:11:56.171Z,3.13
2023-06-02T02:14:22.888Z,3.15
2023-06-02T02:16:51.086Z,5.28
2023-06-02T02:19:17.487Z,2.53
2023-06-02T02:21:43.654Z,3.08
2023-06-02T02:24:11.505Z,4.93
2023-06-02T02:26:37.747Z,9.45
2023-06-02T02:29:04.039Z,4.55
2023-06-02T02:31:31.873Z,3.35
2023-06-02T02:33:58.258Z,3.45
2023-06-02T02:36:27.129Z,4.03
2023-06-02T02:38:56.161Z,3.03
2023-06-02T02:41:23.150Z,4.53
2023-06-02T02:43:50.632Z,3.60
2023-06-02T02:46:17.799Z,3.60
2023-06-02T02:48:45.687Z,5.07
2023-06-02T02:51:12.132Z,3.47
2023-06-02T02:53:38.665Z,3.60
2023-06-02T02:56:11.738Z,4.55
2023-06-02T02:58:40.790Z,4.63
2023-06-02T03:01:16.124Z,3.67
2023-06-02T03:03:45.813Z,3.20
2023-06-02T03:06:20.196Z,4.13
2023-06-02T03:08:55.355Z,4.57
2023-06-02T03:11:22.246Z,3.75
2023-06-02T03:13:57.293Z,3.33
2023-06-02T03:16:23.984Z,3.53
2023-06-02T03:18:50.223Z,3.85
2023-06-02T03:21:18.761Z,3.15
2023-06-02T03:23:45.169Z,3.10
2023-06-02T03:26:13.014Z,3.47
2023-06-02T03:28:43.425Z,3.28
2023-06-02T03:31:13.566Z,3.00
2023-06-02T03:33:43.141Z,4.80
2023-06-02T03:36:21.400Z,3.00
2023-06-02T03:38:51.374Z,4.82
2023-06-02T03:41:21.868Z,3.42
2023-06-02T03:43:48.751Z,3.28
2023-06-02T03:46:15.437Z,4.03
2023-06-02T03:48:52.273Z,4.05
2023-06-02T03:51:19.679Z,3.95
2023-06-02T03:56:37.683Z,4.22
2023-06-02T03:59:04.274Z,3.28
2023-06-02T04:01:33.652Z,4.28
2023-06-02T04:04:03.438Z,3.38
2023-06-02T04:06:35.205Z,3.72
2023-06-02T04:09:01.492Z,3.65
2023-06-02T04:11:27.809Z,3.72
2023-06-02T04:13:54.085Z,3.95
2023-06-02T04:16:20.446Z,3.60
2023-06-02T04:18:47.280Z,3.80
2023-06-02T04:21:13.458Z,3.30
2023-06-02T04:23:39.830Z,3.60
2023-06-02T04:26:07.277Z,3.75
2023-06-02T04:28:35.124Z,4.18
2023-06-02T04:31:03.389Z,5.18
2023-06-02T04:33:29.633Z,3.55
2023-06-02T04:35:57.166Z,3.20
2023-06-02T04:38:23.760Z,3.63
2023-06-02T04:40:52.212Z,3.55
2023-06-02T04:43:18.958Z,3.17
2023-06-02T04:45:47.721Z,3.80
2023-06-02T04:48:14.411Z,4.20
2023-06-02T04:50:43.575Z,4.00
2023-06-02T04:53:17.048Z,4.00
2023-06-02T04:55:45.866Z,4.00
2023-06-02T04:58:15.036Z,4.63
2023-06-02T05:00:50.685Z,3.60
2023-06-02T05:03:23.461Z,4.20
2023-06-02T05:05:49.841Z,4.00
2023-06-02T05:08:19.325Z,3.72
2023-06-02T05:11:04.253Z,3.83
2023-06-02T05:13:35.110Z,4.95
2023-06-02T05:16:05.394Z,3.97
2023-06-02T05:18:32.475Z,3.65
2023-06-02T05:20:59.224Z,4.63
2023-06-02T05:23:25.790Z,4.95
2023-06-02T05:25:52.998Z,4.60
2023-06-02T05:28:19.411Z,3.78
2023-06-02T05:30:53.039Z,3.70
2023-06-02T05:33:27.431Z,3.78
2023-06-02T05:35:54.229Z,4.43
2023-06-02T05:38:24.088Z,4.13
2023-06-02T05:40:51.131Z,4.53
2023-06-02T05:43:26.626Z,4.32
2023-06-02T05:45:53.439Z,3.75
2023-06-02T05:48:20.256Z,4.20
2023-06-02T05:50:48.055Z,4.55
2023-06-02T05:53:23.374Z,3.80
2023-06-02T05:55:55.014Z,4.10
2023-06-02T05:58:24.283Z,5.05
2023-06-02T06:00:57.155Z,4.65
2023-06-02T06:03:24.275Z,3.75
2023-06-02T06:05:53.595Z,4.70
2023-06-02T06:08:20.130Z,4.60
2023-06-02T06:10:47.398Z,4.55
2023-06-02T06:13:18.842Z,4.57
2023-06-02T06:15:47.305Z,4.20
2023-06-02T06:18:17.533Z,4.65
2023-06-02T06:20:47.243Z,4.40
2023-06-02T06:23:16.944Z,4.13
2023-06-02T06:25:43.727Z,4.57
2023-06-02T06:28:14.600Z,4.63
2023-06-02T06:30:47.171Z,4.90
2023-06-02T06:33:14.153Z,5.53
2023-06-02T06:35:45.127Z,4.20
2023-06-02T06:38:11.885Z,4.65
2023-06-02T06:40:38.697Z,5.00
2023-06-02T06:43:22.848Z,4.18
2023-06-02T06:45:53.210Z,4.63
2023-06-02T06:48:23.742Z,4.13
2023-06-02T06:50:59.468Z,4.03
2023-06-02T06:53:27.721Z,4.82
2023-06-02T06:55:56.779Z,5.68
2023-06-02T06:58:23.602Z,4.78
2023-06-02T07:00:50.000Z,5.07
2023-06-02T07:03:16.243Z,4.38
2023-06-02T07:05:44.065Z,5.80
2023-06-02T07:08:10.297Z,6.03
2023-06-02T07:10:37.679Z,5.80
2023-06-02T07:13:03.947Z,5.07
2023-06-02T07:15:30.344Z,6.20
2023-06-02T07:17:59.752Z,5.22
2023-06-02T07:20:26.305Z,5.25
2023-06-02T07:22:55.784Z,5.78
2023-06-02T07:25:22.005Z,5.63
2023-06-02T07:27:48.312Z,5.78
2023-06-02T07:30:16.243Z,5.70
2023-06-02T07:32:42.528Z,4.97
2023-06-02T07:35:12.088Z,5.90
2023-06-02T07:37:38.524Z,5.18
2023-06-02T07:40:06.152Z,4.85
2023-06-02T07:42:36.370Z,5.45
2023-06-02T07:45:05.199Z,4.55
2023-06-02T07:47:31.478Z,4.68
2023-06-02T07:49:57.970Z,5.75
2023-06-02T07:52:24.474Z,6.07
2023-06-02T07:54:50.822Z,4.15
2023-06-02T07:57:17.411Z,6.13
2023-06-02T07:59:43.717Z,5.03
2023-06-02T08:02:10.105Z,4.60
2023-06-02T08:04:36.602Z,5.13
2023-06-02T08:07:07.073Z,6.63
2023-06-02T08:09:33.474Z,4.43
2023-06-02T08:11:59.839Z,4.95
2023-06-02T08:14:27.378Z,4.55
2023-06-02T08:16:58.386Z,4.97
2023-06-02T08:19:26.256Z,5.10
2023-06-02T08:21:57.296Z,4.65
2023-06-02T08:24:25.959Z,4.20
2023-06-02T08:26:53.038Z,4.18
2023-06-02T08:29:20.023Z,5.18
2023-06-02T08:31:47.433Z,4.88
2023-06-02T08:34:15.381Z,4.85
2023-06-02T08:36:41.832Z,4.82
2023-06-02T08:39:08.691Z,4.80
2023-06-02T08:41:37.970Z,3.88
2023-06-02T08:44:04.544Z,4.28
2023-06-02T08:46:31.098Z,4.10
2023-06-02T08:48:59.071Z,4.05
2023-06-02T08:51:25.762Z,3.67
2023-06-02T08:53:52.137Z,4.18
2023-06-02T08:56:19.904Z,1.10
2023-06-02T08:58:47.374Z,0.13
2023-06-02T09:01:14.156Z,0.10
2023-06-02T09:03:46.801Z,0.20
2023-06-02T09:06:26.508Z,0.20
2023-06-02T09:08:58.410Z,0.15
2023-06-02T09:11:26.937Z,0.20
2023-06-02T09:13:58.857Z,0.10
2023-06-02T09:16:36.469Z,0.20
2023-06-02T09:19:03.849Z,0.10
2023-06-02T09:21:33.739Z,0.20
2023-06-02T09:26:37.748Z,0.20
2023-06-02T09:29:09.304Z,0.20
2023-06-02T09:31:49.788Z,0.20
2023-06-02T09:34:17.566Z,0.10
2023-06-02T09:36:44.874Z,0.20
2023-06-02T09:39:11.619Z,0.20
2023-06-02T09:41:41.750Z,0.10
2023-06-02T09:44:15.637Z,0.10
2023-06-02T09:46:44.141Z,0.20
2023-06-02T09:49:11.002Z,0.20
2023-06-02T09:51:39.283Z,0.20
2023-06-02T09:54:07.139Z,0.10
2023-06-02T09:56:37.747Z,0.20
2023-06-02T09:59:13.613Z,0.20
2023-06-02T10:01:40.526Z,0.20
2023-06-02T10:04:07.319Z,0.20
2023-06-02T10:07:08.874Z,0.20
2023-06-02T10:09:50.929Z,0.10
2023-06-02T10:12:26.195Z,0.20
2023-06-02T10:15:11.172Z,0.20
2023-06-02T10:17:51.425Z,0.17
2023-06-02T10:20:28.429Z,0.20
2023-06-02T10:23:08.090Z,0.20
2023-06-02T10:26:20.692Z,0.20
2023-06-02T10:28:47.353Z,0.20
2023-06-02T10:31:14.072Z,0.20
2023-06-02T10:33:47.907Z,0.20
2023-06-02T10:36:14.866Z,0.20
2023-06-02T10:38:41.816Z,0.20
2023-06-02T10:41:08.745Z,0.20
2023-06-02T10:43:39.112Z,0.55
2023-06-02T10:46:19.300Z,0.30
2023-06-02T10:48:52.717Z,0.20
2023-06-02T10:51:22.421Z,0.40
2023-06-02T10:54:05.396Z,0.20
2023-06-02T10:56:40.857Z,0.50
2023-06-02T10:59:08.448Z,0.32
2023-06-02T11:01:47.885Z,0.30
2023-06-02T11:04:35.786Z,0.30
2023-06-02T11:07:24.150Z,0.30
2023-06-02T11:10:17.678Z,0.30
2023-06-02T11:15:39.282Z,0.25
2023-06-02T11:18:24.106Z,0.20
2023-06-02T11:20:54.398Z,0.30
2023-06-02T11:23:24.428Z,0.40
2023-06-02T11:26:06.161Z,0.40
2023-06-02T11:28:32.779Z,0.40
2023-06-02T11:31:15.380Z,0.40
2023-06-02T11:33:48.904Z,0.47
2023-06-02T11:36:32.852Z,0.50
2023-06-02T11:39:06.090Z,0.50
2023-06-02T11:41:32.640Z,0.50
2023-06-02T11:44:10.977Z,0.50
2023-06-02T11:46:38.552Z,0.50
2023-06-02T11:49:05.961Z,0.20
2023-06-02T11:51:32.821Z,0.20
2023-06-02T11:54:05.727Z,0.10
2023-06-02T11:56:33.034Z,0.20
2023-06-02T11:58:59.651Z,0.20
2023-06-02T12:01:37.223Z,0.10
2023-06-02T12:04:08.165Z,0.10
2023-06-02T12:06:50.083Z,0.20
2023-06-02T12:09:17.584Z,0.20
2023-06-02T12:11:47.787Z,0.20
2023-06-02T12:14:15.652Z,0.20
2023-06-02T12:16:44.486Z,0.10
2023-06-02T12:19:16.492Z,0.20
2023-06-02T12:21:44.336Z,0.20
2023-06-02T12:24:11.199Z,0.10
2023-06-02T12:26:48.481Z,0.17
2023-06-02T12:29:15.690Z,0.30
2023-06-02T12:31:42.573Z,0.30
2023-06-02T12:34:09.317Z,0.30
2023-06-02T12:36:39.084Z,0.20
2023-06-02T12:39:08.837Z,0.30
2023-06-02T12:41:40.959Z,0.40
2023-06-02T12:44:08.032Z,0.40
2023-06-02T12:46:37.595Z,1.17
2023-06-02T12:49:07.656Z,0.60
2023-06-02T12:51:37.724Z,0.50
2023-06-02T12:54:04.288Z,0.45
2023-06-02T12:56:33.796Z,0.70
2023-06-02T12:59:02.067Z,0.60
2023-06-02T13:01:28.717Z,0.98
2023-06-02T13:03:57.541Z,0.63
2023-06-02T13:06:25.071Z,0.60
2023-06-02T13:08:52.546Z,0.77
2023-06-02T13:11:19.940Z,0.82
2023-06-02T13:13:46.893Z,0.88
2023-06-02T13:16:16.288Z,0.57
2023-06-02T13:18:49.607Z,0.95
2023-06-02T13:21:16.041Z,0.60
2023-06-02T13:23:42.589Z,0.73
2023-06-02T13:26:09.589Z,0.85
2023-06-02T13:28:37.721Z,0.70
2023-06-02T13:31:04.554Z,0.47
2023-06-02T13:33:34.168Z,0.88
2023-06-02T13:36:03.265Z,0.90
2023-06-02T13:38:32.171Z,0.85
2023-06-02T13:40:59.868Z,1.15
2023-06-02T13:43:28.316Z,0.80
2023-06-02T13:45:54.687Z,0.60
2023-06-02T13:48:21.252Z,1.02
2023-06-02T13:50:52.846Z,0.70
2023-06-02T13:53:19.143Z,0.70
2023-06-02T13:55:45.679Z,0.60
2023-06-02T13:58:12.255Z,0.73
2023-06-02T14:00:49.147Z,0.60
2023-06-02T14:03:18.894Z,0.93
2023-06-02T14:05:51.145Z,1.48
2023-06-02T14:08:21.381Z,0.50
2023-06-02T14:10:52.022Z,0.55
2023-06-02T14:13:18.578Z,0.80
2023-06-02T14:15:45.717Z,0.80
2023-06-02T14:18:12.517Z,0.90
2023-06-02T14:20:39.587Z,0.60
2023-06-02T14:23:07.732Z,0.70
2023-06-02T14:25:34.736Z,0.63
2023-06-02T14:28:01.205Z,1.10
2023-06-02T14:30:27.885Z,0.70
2023-06-02T14:32:54.491Z,0.50
2023-06-02T14:35:21.054Z,0.80
2023-06-02T14:37:52.600Z,0.80
2023-06-02T14:40:19.521Z,0.70
2023-06-02T14:42:46.160Z,0.70
2023-06-02T14:45:16.153Z,1.33
2023-06-02T14:47:42.893Z,0.80
2023-06-02T14:50:09.824Z,1.95
2023-06-02T14:52:37.300Z,0.88
2023-06-02T14:55:04.024Z,0.68
2023-06-02T14:57:30.532Z,1.00
2023-06-02T14:59:58.128Z,2.38
2023-06-02T15:02:25.516Z,1.15
2023-06-02T15:04:53.114Z,0.90
2023-06-02T15:07:27.632Z,0.70
2023-06-02T15:09:54.288Z,1.00
2023-06-02T15:12:23.761Z,0.73
2023-06-02T15:14:50.254Z,0.50
2023-06-02T15:17:19.650Z,0.45
2023-06-02T15:19:48.924Z,0.73
2023-06-02T15:22:16.251Z,0.50
2023-06-02T15:24:42.791Z,0.50
2023-06-02T15:27:09.327Z,0.68
2023-06-02T15:29:40.020Z,0.68
2023-06-02T15:32:06.496Z,0.60
2023-06-02T15:34:35.853Z,0.63
2023-06-02T15:37:03.786Z,0.60
2023-06-02T15:39:30.490Z,0.57
2023-06-02T15:41:57.140Z,0.47
2023-06-02T15:44:23.878Z,0.65
2023-06-02T15:46:53.388Z,0.20
2023-06-02T15:49:24.838Z,0.28
2023-06-02T15:51:52.342Z,1.55
2023-06-02T15:54:18.846Z,0.60
2023-06-02T15:56:46.423Z,0.63
2023-06-02T15:59:12.715Z,1.75
2023-06-02T16:01:39.286Z,0.60
2023-06-02T16:04:08.012Z,2.15
2023-06-02T16:06:35.788Z,1.58
2023-06-02T16:09:02.256Z,1.02
2023-06-02T16:11:29.497Z,1.10
2023-06-02T16:13:56.265Z,1.10
2023-06-02T16:16:25.645Z,1.33
2023-06-02T16:18:57.447Z,1.60
2023-06-02T16:21:24.039Z,0.70
2023-06-02T16:23:50.910Z,1.17
2023-06-02T16:26:20.119Z,0.70
2023-06-02T16:28:50.364Z,0.85
2023-06-02T16:31:17.977Z,0.80
2023-06-02T16:33:45.628Z,1.17
2023-06-02T16:36:12.261Z,0.73
2023-06-02T16:38:39.237Z,1.02
2023-06-02T16:41:05.688Z,1.00
2023-06-02T16:43:32.691Z,0.70
2023-06-02T16:46:00.122Z,1.00
2023-06-02T16:48:29.875Z,1.45
2023-06-02T16:50:56.240Z,1.00
2023-06-02T16:53:23.739Z,0.75
2023-06-02T16:55:55.565Z,1.52
2023-06-02T16:58:22.543Z,1.40
2023-06-02T17:00:48.732Z,0.98
2023-06-02T17:03:16.678Z,1.33
2023-06-02T17:05:45.736Z,1.10
2023-06-02T17:08:12.612Z,1.42
2023-06-02T17:10:39.530Z,1.08
2023-06-02T17:13:05.767Z,0.98
2023-06-02T17:15:32.080Z,1.20
2023-06-02T17:17:59.726Z,1.58
2023-06-02T17:20:26.218Z,1.10
2023-06-02T17:22:52.396Z,2.63
2023-06-02T17:27:48.760Z,1.20
2023-06-02T17:30:21.958Z,1.15
2023-06-02T17:32:48.200Z,1.27
2023-06-02T17:35:17.441Z,1.35
2023-06-02T17:37:43.772Z,0.90
2023-06-02T17:40:13.688Z,1.20
2023-06-02T17:42:40.966Z,1.15
2023-06-02T17:45:07.776Z,0.82
2023-06-02T17:47:34.056Z,1.50
2023-06-02T17:50:02.999Z,1.10
2023-06-02T17:52:31.169Z,1.27
2023-06-02T17:55:02.925Z,0.75
2023-06-02T17:57:29.338Z,0.88
2023-06-02T18:00:01.171Z,0.93
2023-06-02T18:02:27.750Z,0.88
2023-06-02T18:04:54.087Z,1.33
2023-06-02T18:07:27.226Z,0.75
2023-06-02T18:09:55.929Z,1.10
2023-06-02T18:12:22.612Z,0.70
2023-06-02T18:14:51.707Z,0.70
2023-06-02T18:17:19.409Z,0.90
2023-06-02T18:19:47.989Z,0.90
2023-06-02T18:22:17.464Z,0.70
2023-06-02T18:24:47.306Z,1.20
2023-06-02T18:27:14.749Z,0.75
2023-06-02T18:29:42.146Z,0.80
2023-06-02T18:32:12.098Z,0.60
2023-06-02T18:34:40.498Z,0.60
2023-06-02T18:37:07.036Z,0.77
2023-06-02T18:39:33.602Z,0.88
2023-06-02T18:42:03.298Z,1.27
2023-06-02T18:44:30.502Z,0.70
2023-06-02T18:46:57.526Z,1.00
2023-06-02T18:49:24.280Z,0.80
2023-06-02T18:51:53.830Z,1.10
2023-06-02T18:54:20.280Z,1.08
2023-06-02T18:56:49.587Z,1.10
2023-06-02T18:59:16.057Z,1.00
2023-06-02T19:01:48.976Z,1.17
2023-06-02T19:04:19.215Z,1.20
2023-06-02T19:06:48.174Z,0.98
2023-06-02T19:09:14.629Z,1.30
2023-06-02T19:11:45.995Z,1.15
2023-06-02T19:14:12.373Z,1.35
2023-06-02T19:16:40.163Z,1.80
2023-06-02T19:19:21.983Z,1.20
2023-06-02T19:24:14.671Z,1.33
2023-06-02T19:26:40.941Z,1.23
2023-06-02T19:29:10.889Z,1.40
2023-06-02T19:31:39.518Z,0.90
2023-06-02T19:34:07.973Z,0.82
2023-06-02T19:36:38.282Z,0.88
2023-06-02T19:39:09.295Z,1.35
2023-06-02T19:41:36.926Z,0.90
2023-06-02T19:44:04.193Z,0.70
2023-06-02T19:46:33.601Z,0.70
2023-06-02T19:49:03.474Z,1.00
2023-06-02T19:51:29.750Z,0.70
2023-06-02T19:53:56.612Z,0.90
2023-06-02T19:56:24.739Z,0.77
2023-06-02T19:58:51.015Z,0.80
2023-06-02T20:01:20.081Z,0.70
2023-06-02T20:03:47.101Z,0.75
2023-06-02T20:06:13.478Z,0.70
2023-06-02T20:08:40.178Z,0.80
2023-06-02T20:11:08.922Z,0.90
2023-06-02T20:13:35.424Z,0.80
2023-06-02T20:16:04.962Z,0.70
2023-06-02T20:18:33.255Z,0.68
2023-06-02T20:20:59.979Z,0.80
2023-06-02T20:23:27.372Z,0.80
2023-06-02T20:25:53.765Z,0.60
2023-06-02T20:28:22.992Z,0.90
2023-06-02T20:30:49.697Z,0.90
2023-06-02T20:33:17.574Z,0.90
2023-06-02T20:35:43.906Z,0.70
2023-06-02T20:38:10.626Z,0.60
2023-06-02T20:40:39.337Z,0.80
2023-06-02T20:43:08.648Z,0.65
2023-06-02T20:45:35.175Z,0.90
2023-06-02T20:48:03.141Z,1.02
2023-06-02T20:50:29.685Z,0.60
2023-06-02T20:52:55.993Z,0.85
2023-06-02T20:55:24.318Z,0.80
2023-06-02T20:57:50.749Z,0.60
2023-06-02T21:00:17.336Z,0.60
2023-06-02T21:02:43.867Z,0.80
2023-06-02T21:05:10.480Z,0.75
2023-06-02T21:07:36.713Z,0.90
2023-06-02T21:10:04.096Z,0.70
2023-06-02T21:12:32.695Z,0.80
2023-06-02T21:14:59.033Z,0.60
2023-06-02T21:17:26.683Z,0.77
2023-06-02T21:19:52.921Z,0.93
2023-06-02T21:22:19.430Z,0.73
2023-06-02T21:24:45.869Z,1.00
2023-06-02T21:27:14.781Z,0.93
2023-06-02T21:29:42.935Z,0.70
2023-06-02T21:32:10.927Z,1.00
2023-06-02T21:34:40.099Z,0.95
2023-06-02T21:37:07.051Z,0.98
2023-06-02T21:39:33.466Z,1.00
2023-06-02T21:41:59.771Z,0.80
2023-06-02T21:44:26.516Z,0.98
2023-06-02T21:46:52.795Z,0.90
2023-06-02T21:49:19.139Z,1.00
2023-06-02T21:51:46.384Z,1.08
2023-06-02T21:54:12.728Z,0.98
2023-06-02T21:56:38.971Z,1.27
2023-06-02T21:59:05.586Z,0.88
2023-06-02T22:01:32.295Z,1.08
2023-06-02T22:04:02.351Z,1.00
2023-06-02T22:06:29.678Z,1.38
2023-06-02T22:08:56.443Z,1.10
2023-06-02T22:11:23.715Z,0.93
2023-06-02T22:13:51.344Z,0.88
2023-06-02T22:16:20.946Z,1.30
2023-06-02T22:18:47.297Z,0.90
2023-06-02T22:21:13.712Z,0.93
2023-06-02T22:23:42.945Z,0.98
2023-06-02T22:26:09.829Z,0.95
2023-06-02T22:28:36.108Z,0.70
2023-06-02T22:31:02.536Z,1.02
2023-06-02T22:33:31.558Z,1.23
2023-06-02T22:36:00.209Z,0.90
2023-06-02T22:38:26.550Z,1.10
2023-06-02T22:40:53.032Z,1.00
2023-06-02T22:43:19.402Z,1.40
2023-06-02T22:45:45.673Z,1.35
2023-06-02T22:48:12.099Z,1.25
2023-06-02T22:50:38.298Z,1.05
2023-06-02T22:53:06.217Z,0.80
2023-06-02T22:55:32.676Z,1.10
2023-06-02T22:57:58.881Z,1.00
2023-06-02T23:00:25.337Z,1.13
2023-06-02T23:02:54.552Z,0.80
2023-06-02T23:05:21.053Z,1.13
2023-06-02T23:07:47.484Z,0.80
2023-06-02T23:10:15.559Z,1.33
2023-06-02T23:12:42.213Z,1.00
2023-06-02T23:15:13.171Z,0.95
2023-06-02T23:17:41.295Z,1.27
2023-06-02T23:20:09.215Z,1.30
2023-06-02T23:22:40.406Z,1.15
2023-06-02T23:25:09.484Z,1.05
2023-06-02T23:27:36.416Z,1.20
2023-06-02T23:30:06.308Z,0.90
2023-06-02T23:32:33.482Z,1.00
2023-06-02T23:35:00.722Z,1.10
2023-06-02T23:40:34.990Z,1.10
2023-06-02T23:43:07.820Z,0.90
2023-06-02T23:45:34.919Z,1.38
2023-06-02T23:48:04.918Z,0.98
2023-06-02T23:50:34.634Z,0.85
2023-06-02T23:53:00.994Z,1.25
2023-06-02T23:55:27.520Z,0.80
2023-06-02T23:57:57.013Z,1.02
